sensor_id;sensor_type;location;lat;lon;timestamp;pressure;altitude;pressure_sealevel;temperature;humidity
9935;BME280;5006;41.828;23.478;2023-02-12T00:00:12;90896.38;;;6.49;43.82
9935;BME280;5006;41.828;23.478;2023-02-12T00:01:23;90896.28;;;6.61;43.87
9935;BME280;5006;41.828;23.478;2023-02-12T00:02:29;90895.00;;;5.90;45.33
9935;BME280;5006;41.828;23.478;2023-02-12T00:03:34;90889.81;;;5.97;44.79
9935;BME280;5006;41.828;23.478;2023-02-12T00:04:40;90892.06;;;5.95;45.47
9935;BME280;5006;41.828;23.478;2023-02-12T00:05:45;90889.00;;;5.65;46.07
9935;BME280;5006;41.828;23.478;2023-02-12T00:06:50;90882.50;;;5.63;46.68
9935;BME280;5006;41.828;23.478;2023-02-12T00:07:55;90886.00;;;5.51;44.33
9935;BME280;5006;41.828;23.478;2023-02-12T00:09:01;90890.34;;;5.01;45.82
9935;BME280;5006;41.828;23.478;2023-02-12T00:10:06;90884.78;;;6.07;43.76
9935;BME280;5006;41.828;23.478;2023-02-12T00:11:16;90880.50;;;6.52;45.84
9935;BME280;5006;41.828;23.478;2023-02-12T00:12:21;90877.88;;;6.90;44.29
9935;BME280;5006;41.828;23.478;2023-02-12T00:13:29;90875.72;;;6.61;42.36
9935;BME280;5006;41.828;23.478;2023-02-12T00:14:35;90886.00;;;6.78;41.94
9935;BME280;5006;41.828;23.478;2023-02-12T00:15:41;90883.38;;;6.29;43.17
9935;BME280;5006;41.828;23.478;2023-02-12T00:16:46;90891.75;;;5.69;43.51
9935;BME280;5006;41.828;23.478;2023-02-12T00:17:52;90877.13;;;5.32;42.78
9935;BME280;5006;41.828;23.478;2023-02-12T00:18:57;90892.31;;;6.05;41.43
9935;BME280;5006;41.828;23.478;2023-02-12T00:20:05;90880.94;;;5.62;41.32
9935;BME280;5006;41.828;23.478;2023-02-12T00:21:10;90888.69;;;6.13;39.97
9935;BME280;5006;41.828;23.478;2023-02-12T00:22:17;90878.66;;;5.76;39.94
9935;BME280;5006;41.828;23.478;2023-02-12T00:23:21;90890.56;;;6.43;39.74
9935;BME280;5006;41.828;23.478;2023-02-12T00:24:27;90881.25;;;7.06;38.90
9935;BME280;5006;41.828;23.478;2023-02-12T00:25:32;90881.31;;;7.70;40.59
9935;BME280;5006;41.828;23.478;2023-02-12T00:26:38;90887.72;;;7.66;40.75
9935;BME280;5006;41.828;23.478;2023-02-12T00:27:44;90882.34;;;6.18;43.92
9935;BME280;5006;41.828;23.478;2023-02-12T00:28:49;90878.22;;;7.27;43.49
9935;BME280;5006;41.828;23.478;2023-02-12T00:29:55;90867.22;;;7.28;40.87
9935;BME280;5006;41.828;23.478;2023-02-12T00:31:04;90872.41;;;6.49;42.35
9935;BME280;5006;41.828;23.478;2023-02-12T00:32:10;90878.22;;;6.89;42.51
9935;BME280;5006;41.828;23.478;2023-02-12T00:33:15;90875.16;;;6.52;44.35
9935;BME280;5006;41.828;23.478;2023-02-12T00:34:22;90866.59;;;7.80;41.24
9935;BME280;5006;41.828;23.478;2023-02-12T00:35:27;90870.47;;;7.82;40.83
9935;BME280;5006;41.828;23.478;2023-02-12T00:36:33;90867.03;;;7.82;39.61
9935;BME280;5006;41.828;23.478;2023-02-12T00:37:38;90862.97;;;7.69;38.53
9935;BME280;5006;41.828;23.478;2023-02-12T00:38:44;90874.19;;;7.55;37.64
9935;BME280;5006;41.828;23.478;2023-02-12T00:39:49;90866.19;;;7.36;34.20
9935;BME280;5006;41.828;23.478;2023-02-12T00:40:55;90867.97;;;8.63;36.45
9935;BME280;5006;41.828;23.478;2023-02-12T00:42:01;90866.59;;;8.73;38.33
9935;BME280;5006;41.828;23.478;2023-02-12T00:43:06;90872.16;;;8.16;39.21
9935;BME280;5006;41.828;23.478;2023-02-12T00:44:11;90867.16;;;8.59;37.42
9935;BME280;5006;41.828;23.478;2023-02-12T00:45:17;90873.38;;;7.96;37.29
9935;BME280;5006;41.828;23.478;2023-02-12T00:46:22;90886.69;;;6.26;38.06
9935;BME280;5006;41.828;23.478;2023-02-12T00:47:28;90876.19;;;6.48;38.24
9935;BME280;5006;41.828;23.478;2023-02-12T00:48:33;90881.50;;;8.03;37.12
9935;BME280;5006;41.828;23.478;2023-02-12T00:49:38;90880.03;;;8.28;35.85
9935;BME280;5006;41.828;23.478;2023-02-12T00:50:44;90881.06;;;7.37;36.59
9935;BME280;5006;41.828;23.478;2023-02-12T00:51:49;90886.00;;;6.78;37.68
9935;BME280;5006;41.828;23.478;2023-02-12T00:52:54;90886.63;;;7.48;36.39
9935;BME280;5006;41.828;23.478;2023-02-12T00:54:00;90877.53;;;7.94;37.09
9935;BME280;5006;41.828;23.478;2023-02-12T00:55:05;90874.84;;;7.30;35.74
9935;BME280;5006;41.828;23.478;2023-02-12T00:56:10;90875.72;;;7.56;34.40
9935;BME280;5006;41.828;23.478;2023-02-12T00:57:16;90871.00;;;8.14;34.14
9935;BME280;5006;41.828;23.478;2023-02-12T00:58:22;90864.06;;;7.87;33.68
9935;BME280;5006;41.828;23.478;2023-02-12T00:59:27;90854.41;;;8.50;35.00
9935;BME280;5006;41.828;23.478;2023-02-12T01:00:34;90869.53;;;9.23;35.48
9935;BME280;5006;41.828;23.478;2023-02-12T01:01:39;90873.47;;;8.22;36.55
9935;BME280;5006;41.828;23.478;2023-02-12T01:02:44;90872.66;;;7.35;32.88
9935;BME280;5006;41.828;23.478;2023-02-12T01:03:50;90863.69;;;7.66;32.10
9935;BME280;5006;41.828;23.478;2023-02-12T01:04:57;90857.50;;;8.26;33.85
9935;BME280;5006;41.828;23.478;2023-02-12T01:06:01;90860.75;;;7.93;31.98
9935;BME280;5006;41.828;23.478;2023-02-12T01:07:08;90862.09;;;8.80;30.73
9935;BME280;5006;41.828;23.478;2023-02-12T01:08:14;90845.81;;;8.63;31.43
9935;BME280;5006;41.828;23.478;2023-02-12T01:09:19;90847.88;;;8.21;36.05
9935;BME280;5006;41.828;23.478;2023-02-12T01:10:25;90859.50;;;8.32;36.13
9935;BME280;5006;41.828;23.478;2023-02-12T01:11:31;90856.78;;;8.06;31.51
9935;BME280;5006;41.828;23.478;2023-02-12T01:12:37;90849.84;;;7.79;32.13
9935;BME280;5006;41.828;23.478;2023-02-12T01:13:43;90849.00;;;8.20;35.48
9935;BME280;5006;41.828;23.478;2023-02-12T01:14:48;90845.91;;;9.29;36.78
9935;BME280;5006;41.828;23.478;2023-02-12T01:16:01;90840.66;;;9.06;36.25
9935;BME280;5006;41.828;23.478;2023-02-12T01:17:07;90843.91;;;8.89;39.26
9935;BME280;5006;41.828;23.478;2023-02-12T01:18:13;90836.63;;;8.12;37.84
9935;BME280;5006;41.828;23.478;2023-02-12T01:19:19;90844.13;;;7.58;33.56
9935;BME280;5006;41.828;23.478;2023-02-12T01:20:25;90838.41;;;7.60;32.42
9935;BME280;5006;41.828;23.478;2023-02-12T01:21:32;90842.38;;;8.14;32.71
9935;BME280;5006;41.828;23.478;2023-02-12T01:22:38;90835.34;;;7.80;35.98
9935;BME280;5006;41.828;23.478;2023-02-12T01:23:44;90832.06;;;8.35;33.42
9935;BME280;5006;41.828;23.478;2023-02-12T01:24:49;90831.16;;;7.79;36.95
9935;BME280;5006;41.828;23.478;2023-02-12T01:25:54;90837.81;;;8.37;37.63
9935;BME280;5006;41.828;23.478;2023-02-12T01:26:59;90857.78;;;7.34;33.39
9935;BME280;5006;41.828;23.478;2023-02-12T01:28:08;90834.50;;;7.54;31.77
9935;BME280;5006;41.828;23.478;2023-02-12T01:29:14;90861.56;;;6.76;30.28
9935;BME280;5006;41.828;23.478;2023-02-12T01:30:20;90840.72;;;8.29;29.70
9935;BME280;5006;41.828;23.478;2023-02-12T01:31:31;90831.66;;;8.33;30.69
9935;BME280;5006;41.828;23.478;2023-02-12T01:32:37;90833.84;;;8.53;31.19
9935;BME280;5006;41.828;23.478;2023-02-12T01:33:42;90831.94;;;9.13;30.02
9935;BME280;5006;41.828;23.478;2023-02-12T01:34:48;90841.25;;;8.15;30.61
9935;BME280;5006;41.828;23.478;2023-02-12T01:35:53;90834.69;;;8.87;30.17
9935;BME280;5006;41.828;23.478;2023-02-12T01:36:59;90836.13;;;8.26;31.86
9935;BME280;5006;41.828;23.478;2023-02-12T01:38:03;90830.53;;;8.89;32.32
9935;BME280;5006;41.828;23.478;2023-02-12T01:39:09;90831.19;;;8.28;33.79
9935;BME280;5006;41.828;23.478;2023-02-12T01:40:16;90834.97;;;8.04;34.26
9935;BME280;5006;41.828;23.478;2023-02-12T01:41:25;90829.56;;;8.75;33.81
9935;BME280;5006;41.828;23.478;2023-02-12T01:42:30;90825.22;;;8.15;34.69
9935;BME280;5006;41.828;23.478;2023-02-12T01:43:37;90820.63;;;8.38;35.40
9935;BME280;5006;41.828;23.478;2023-02-12T01:44:43;90830.84;;;8.33;35.21
9935;BME280;5006;41.828;23.478;2023-02-12T01:45:50;90823.16;;;8.28;34.11
9935;BME280;5006;41.828;23.478;2023-02-12T01:47:00;90826.75;;;8.16;36.33
9935;BME280;5006;41.828;23.478;2023-02-12T01:48:06;90826.97;;;8.27;36.39
9935;BME280;5006;41.828;23.478;2023-02-12T01:49:15;90826.66;;;8.09;36.51
9935;BME280;5006;41.828;23.478;2023-02-12T01:50:22;90820.44;;;8.24;36.08
9935;BME280;5006;41.828;23.478;2023-02-12T01:51:29;90820.94;;;7.62;36.07
9935;BME280;5006;41.828;23.478;2023-02-12T01:52:36;90816.00;;;7.64;36.19
9935;BME280;5006;41.828;23.478;2023-02-12T01:53:46;90815.31;;;7.26;34.91
9935;BME280;5006;41.828;23.478;2023-02-12T01:54:54;90811.19;;;7.28;33.32
9935;BME280;5006;41.828;23.478;2023-02-12T01:56:03;90811.19;;;7.73;33.37
9935;BME280;5006;41.828;23.478;2023-02-12T01:57:11;90807.81;;;7.54;33.71
9935;BME280;5006;41.828;23.478;2023-02-12T01:58:16;90798.63;;;7.51;31.51
9935;BME280;5006;41.828;23.478;2023-02-12T01:59:23;90804.19;;;7.88;31.70
9935;BME280;5006;41.828;23.478;2023-02-12T02:00:28;90796.97;;;7.66;30.98
9935;BME280;5006;41.828;23.478;2023-02-12T02:01:36;90802.88;;;8.01;30.60
9935;BME280;5006;41.828;23.478;2023-02-12T02:02:41;90789.44;;;8.46;30.52
9935;BME280;5006;41.828;23.478;2023-02-12T02:03:50;90790.31;;;8.27;32.91
9935;BME280;5006;41.828;23.478;2023-02-12T02:04:59;90790.41;;;8.60;36.84
9935;BME280;5006;41.828;23.478;2023-02-12T02:06:08;90800.19;;;9.11;37.53
9935;BME280;5006;41.828;23.478;2023-02-12T02:07:15;90786.66;;;8.68;38.28
9935;BME280;5006;41.828;23.478;2023-02-12T02:08:21;90791.66;;;8.99;37.83
9935;BME280;5006;41.828;23.478;2023-02-12T02:09:27;90783.81;;;8.54;37.76
9935;BME280;5006;41.828;23.478;2023-02-12T02:10:34;90781.72;;;7.89;37.18
9935;BME280;5006;41.828;23.478;2023-02-12T02:11:38;90773.19;;;7.35;38.09
9935;BME280;5006;41.828;23.478;2023-02-12T02:13:01;90781.59;;;6.76;37.46
9935;BME280;5006;41.828;23.478;2023-02-12T02:14:26;90782.78;;;6.22;40.08
9935;BME280;5006;41.828;23.478;2023-02-12T02:15:45;90795.63;;;6.35;39.12
9935;BME280;5006;41.828;23.478;2023-02-12T02:16:58;90790.75;;;6.56;38.97
9935;BME280;5006;41.828;23.478;2023-02-12T02:18:09;90790.16;;;6.47;38.85
9935;BME280;5006;41.828;23.478;2023-02-12T02:19:27;90787.97;;;6.00;38.65
9935;BME280;5006;41.828;23.478;2023-02-12T02:22:24;90792.22;;;6.01;35.67
9935;BME280;5006;41.828;23.478;2023-02-12T02:23:54;90795.81;;;5.62;35.93
9935;BME280;5006;41.828;23.478;2023-02-12T02:26:49;90786.50;;;7.12;36.70
9935;BME280;5006;41.828;23.478;2023-02-12T02:28:10;90800.56;;;6.52;40.29
9935;BME280;5006;41.828;23.478;2023-02-12T02:29:34;90797.31;;;6.62;40.90
9935;BME280;5006;41.828;23.478;2023-02-12T02:30:52;90806.44;;;6.61;39.94
9935;BME280;5006;41.828;23.478;2023-02-12T02:32:05;90803.31;;;6.22;41.64
9935;BME280;5006;41.828;23.478;2023-02-12T02:33:23;90806.81;;;5.91;42.32
9935;BME280;5006;41.828;23.478;2023-02-12T02:34:37;90809.00;;;6.20;42.32
9935;BME280;5006;41.828;23.478;2023-02-12T02:35:46;90828.38;;;6.36;43.32
9935;BME280;5006;41.828;23.478;2023-02-12T02:36:56;90819.69;;;6.24;42.56
9935;BME280;5006;41.828;23.478;2023-02-12T02:38:13;90821.22;;;6.06;43.62
9935;BME280;5006;41.828;23.478;2023-02-12T02:39:27;90824.53;;;6.18;44.10
9935;BME280;5006;41.828;23.478;2023-02-12T02:40:40;90818.56;;;5.75;43.18
9935;BME280;5006;41.828;23.478;2023-02-12T02:41:54;90822.75;;;6.07;44.57
9935;BME280;5006;41.828;23.478;2023-02-12T02:43:05;90821.66;;;5.77;46.29
9935;BME280;5006;41.828;23.478;2023-02-12T02:44:16;90828.94;;;5.49;46.25
9935;BME280;5006;41.828;23.478;2023-02-12T02:45:27;90824.59;;;5.87;45.28
9935;BME280;5006;41.828;23.478;2023-02-12T02:46:37;90830.50;;;5.81;45.62
9935;BME280;5006;41.828;23.478;2023-02-12T02:47:49;90823.44;;;5.73;45.68
9935;BME280;5006;41.828;23.478;2023-02-12T02:48:57;90823.88;;;5.90;46.36
9935;BME280;5006;41.828;23.478;2023-02-12T02:50:08;90823.25;;;6.12;47.37
9935;BME280;5006;41.828;23.478;2023-02-12T02:51:17;90832.28;;;5.77;47.39
9935;BME280;5006;41.828;23.478;2023-02-12T02:52:30;90828.53;;;6.81;43.89
9935;BME280;5006;41.828;23.478;2023-02-12T02:53:38;90818.78;;;6.69;43.67
9935;BME280;5006;41.828;23.478;2023-02-12T02:54:49;90821.78;;;6.68;44.51
9935;BME280;5006;41.828;23.478;2023-02-12T02:55:58;90821.44;;;6.88;44.00
9935;BME280;5006;41.828;23.478;2023-02-12T02:57:15;90813.34;;;6.81;44.94
9935;BME280;5006;41.828;23.478;2023-02-12T02:58:24;90817.13;;;6.80;45.02
9935;BME280;5006;41.828;23.478;2023-02-12T02:59:34;90812.03;;;7.13;43.99
9935;BME280;5006;41.828;23.478;2023-02-12T03:00:43;90814.84;;;6.63;45.17
9935;BME280;5006;41.828;23.478;2023-02-12T03:01:58;90812.09;;;5.14;44.93
9935;BME280;5006;41.828;23.478;2023-02-12T03:03:08;90807.47;;;6.04;42.71
9935;BME280;5006;41.828;23.478;2023-02-12T03:04:18;90812.38;;;5.40;44.22
9935;BME280;5006;41.828;23.478;2023-02-12T03:05:28;90813.56;;;5.58;45.51
9935;BME280;5006;41.828;23.478;2023-02-12T03:06:40;90802.09;;;5.85;45.77
9935;BME280;5006;41.828;23.478;2023-02-12T03:07:51;90812.00;;;6.37;44.22
9935;BME280;5006;41.828;23.478;2023-02-12T03:09:03;90812.88;;;6.41;42.86
9935;BME280;5006;41.828;23.478;2023-02-12T03:10:11;90807.16;;;6.77;42.39
9935;BME280;5006;41.828;23.478;2023-02-12T03:11:22;90821.66;;;6.80;41.39
9935;BME280;5006;41.828;23.478;2023-02-12T03:12:32;90824.78;;;5.36;41.45
9935;BME280;5006;41.828;23.478;2023-02-12T03:13:42;90816.22;;;6.04;40.87
9935;BME280;5006;41.828;23.478;2023-02-12T03:14:53;90821.16;;;6.55;39.95
9935;BME280;5006;41.828;23.478;2023-02-12T03:16:07;90811.72;;;6.24;40.61
9935;BME280;5006;41.828;23.478;2023-02-12T03:17:17;90806.59;;;6.00;42.07
9935;BME280;5006;41.828;23.478;2023-02-12T03:18:28;90797.19;;;5.87;43.50
9935;BME280;5006;41.828;23.478;2023-02-12T03:19:37;90809.94;;;6.46;43.42
9935;BME280;5006;41.828;23.478;2023-02-12T03:20:46;90810.69;;;6.28;42.30
9935;BME280;5006;41.828;23.478;2023-02-12T03:21:56;90816.34;;;5.61;44.52
9935;BME280;5006;41.828;23.478;2023-02-12T03:23:06;90810.94;;;5.89;42.51
9935;BME280;5006;41.828;23.478;2023-02-12T03:24:15;90814.50;;;6.12;42.78
9935;BME280;5006;41.828;23.478;2023-02-12T03:25:27;90805.09;;;5.68;44.25
9935;BME280;5006;41.828;23.478;2023-02-12T03:26:39;90811.50;;;6.13;45.00
9935;BME280;5006;41.828;23.478;2023-02-12T03:27:51;90804.16;;;6.26;44.50
9935;BME280;5006;41.828;23.478;2023-02-12T03:29:00;90801.72;;;6.02;44.02
9935;BME280;5006;41.828;23.478;2023-02-12T03:30:07;90802.69;;;6.28;43.80
9935;BME280;5006;41.828;23.478;2023-02-12T03:31:19;90803.19;;;5.99;45.81
9935;BME280;5006;41.828;23.478;2023-02-12T03:32:35;90795.97;;;5.69;45.36
9935;BME280;5006;41.828;23.478;2023-02-12T03:33:51;90802.25;;;6.07;45.97
9935;BME280;5006;41.828;23.478;2023-02-12T03:35:08;90795.69;;;6.20;44.83
9935;BME280;5006;41.828;23.478;2023-02-12T03:36:24;90790.66;;;6.53;43.89
9935;BME280;5006;41.828;23.478;2023-02-12T03:37:32;90795.47;;;5.48;44.73
9935;BME280;5006;41.828;23.478;2023-02-12T03:38:43;90791.00;;;5.21;43.19
9935;BME280;5006;41.828;23.478;2023-02-12T03:39:53;90787.31;;;5.87;41.80
9935;BME280;5006;41.828;23.478;2023-02-12T03:41:05;90776.91;;;6.32;43.51
9935;BME280;5006;41.828;23.478;2023-02-12T03:42:15;90777.63;;;5.48;46.60
9935;BME280;5006;41.828;23.478;2023-02-12T03:43:27;90780.03;;;5.84;43.61
9935;BME280;5006;41.828;23.478;2023-02-12T03:44:45;90781.84;;;5.65;42.30
9935;BME280;5006;41.828;23.478;2023-02-12T03:45:55;90787.50;;;5.48;47.37
9935;BME280;5006;41.828;23.478;2023-02-12T03:47:07;90783.53;;;5.88;45.31
9935;BME280;5006;41.828;23.478;2023-02-12T03:48:26;90787.56;;;5.51;44.54
9935;BME280;5006;41.828;23.478;2023-02-12T03:49:37;90784.75;;;5.60;44.16
9935;BME280;5006;41.828;23.478;2023-02-12T03:50:51;90795.19;;;5.68;47.55
9935;BME280;5006;41.828;23.478;2023-02-12T03:51:58;90786.59;;;6.06;44.04
9935;BME280;5006;41.828;23.478;2023-02-12T03:53:03;90798.81;;;5.91;44.15
9935;BME280;5006;41.828;23.478;2023-02-12T03:54:12;90788.00;;;5.69;44.75
9935;BME280;5006;41.828;23.478;2023-02-12T03:55:17;90788.44;;;6.21;43.15
9935;BME280;5006;41.828;23.478;2023-02-12T03:56:28;90782.41;;;6.05;42.33
9935;BME280;5006;41.828;23.478;2023-02-12T03:57:38;90781.88;;;6.15;42.61
9935;BME280;5006;41.828;23.478;2023-02-12T03:58:45;90784.56;;;5.99;43.35
9935;BME280;5006;41.828;23.478;2023-02-12T03:59:50;90788.31;;;6.14;45.22
9935;BME280;5006;41.828;23.478;2023-02-12T04:00:56;90781.41;;;6.13;46.94
9935;BME280;5006;41.828;23.478;2023-02-12T04:02:01;90777.69;;;5.98;45.51
9935;BME280;5006;41.828;23.478;2023-02-12T04:03:07;90781.75;;;5.77;39.91
9935;BME280;5006;41.828;23.478;2023-02-12T04:04:14;90774.88;;;5.76;38.46
9935;BME280;5006;41.828;23.478;2023-02-12T04:05:21;90785.72;;;6.17;39.85
9935;BME280;5006;41.828;23.478;2023-02-12T04:06:27;90780.13;;;6.41;43.97
9935;BME280;5006;41.828;23.478;2023-02-12T04:07:35;90774.91;;;6.10;44.99
9935;BME280;5006;41.828;23.478;2023-02-12T04:08:40;90783.03;;;6.51;42.61
9935;BME280;5006;41.828;23.478;2023-02-12T04:09:46;90779.78;;;5.58;46.90
9935;BME280;5006;41.828;23.478;2023-02-12T04:11:00;90770.69;;;5.28;46.90
9935;BME280;5006;41.828;23.478;2023-02-12T04:12:33;90767.41;;;5.66;41.56
9935;BME280;5006;41.828;23.478;2023-02-12T04:13:42;90774.94;;;4.59;43.28
9935;BME280;5006;41.828;23.478;2023-02-12T04:14:54;90771.88;;;5.31;43.83
9935;BME280;5006;41.828;23.478;2023-02-12T04:16:08;90769.06;;;6.39;41.96
9935;BME280;5006;41.828;23.478;2023-02-12T04:17:21;90765.94;;;6.52;44.72
9935;BME280;5006;41.828;23.478;2023-02-12T04:18:35;90767.25;;;5.59;47.37
9935;BME280;5006;41.828;23.478;2023-02-12T04:19:54;90761.13;;;5.89;42.86
9935;BME280;5006;41.828;23.478;2023-02-12T04:21:07;90757.78;;;6.45;40.20
9935;BME280;5006;41.828;23.478;2023-02-12T04:22:28;90754.91;;;7.14;41.68
9935;BME280;5006;41.828;23.478;2023-02-12T04:23:45;90759.13;;;7.15;41.72
9935;BME280;5006;41.828;23.478;2023-02-12T04:24:57;90752.94;;;7.11;42.30
9935;BME280;5006;41.828;23.478;2023-02-12T04:26:09;90757.53;;;7.33;41.31
9935;BME280;5006;41.828;23.478;2023-02-12T04:27:20;90757.00;;;6.83;40.73
9935;BME280;5006;41.828;23.478;2023-02-12T04:28:34;90749.06;;;6.86;43.69
9935;BME280;5006;41.828;23.478;2023-02-12T04:29:47;90749.78;;;6.45;45.33
9935;BME280;5006;41.828;23.478;2023-02-12T04:30:58;90757.06;;;6.30;44.31
9935;BME280;5006;41.828;23.478;2023-02-12T04:32:09;90755.81;;;6.61;43.52
9935;BME280;5006;41.828;23.478;2023-02-12T04:33:19;90750.19;;;7.04;44.21
9935;BME280;5006;41.828;23.478;2023-02-12T04:34:31;90752.63;;;6.94;45.01
9935;BME280;5006;41.828;23.478;2023-02-12T04:35:45;90746.44;;;7.09;44.78
9935;BME280;5006;41.828;23.478;2023-02-12T04:36:55;90749.31;;;7.00;44.45
9935;BME280;5006;41.828;23.478;2023-02-12T04:38:08;90763.88;;;6.27;43.94
9935;BME280;5006;41.828;23.478;2023-02-12T04:39:17;90761.97;;;6.46;42.46
9935;BME280;5006;41.828;23.478;2023-02-12T04:40:25;90750.69;;;6.15;42.71
9935;BME280;5006;41.828;23.478;2023-02-12T04:41:31;90745.84;;;5.71;44.18
9935;BME280;5006;41.828;23.478;2023-02-12T04:42:41;90742.28;;;6.13;44.42
9935;BME280;5006;41.828;23.478;2023-02-12T04:43:46;90749.78;;;6.27;44.61
9935;BME280;5006;41.828;23.478;2023-02-12T04:44:52;90765.66;;;6.04;44.96
9935;BME280;5006;41.828;23.478;2023-02-12T04:45:56;90764.78;;;6.72;41.84
9935;BME280;5006;41.828;23.478;2023-02-12T04:47:02;90772.06;;;5.22;43.18
9935;BME280;5006;41.828;23.478;2023-02-12T04:48:07;90764.06;;;5.69;43.20
9935;BME280;5006;41.828;23.478;2023-02-12T04:49:15;90775.38;;;6.50;42.75
9935;BME280;5006;41.828;23.478;2023-02-12T04:50:20;90773.84;;;5.65;46.64
9935;BME280;5006;41.828;23.478;2023-02-12T04:51:28;90768.06;;;6.09;45.91
9935;BME280;5006;41.828;23.478;2023-02-12T04:52:32;90767.31;;;5.62;42.94
9935;BME280;5006;41.828;23.478;2023-02-12T04:53:38;90769.50;;;4.83;44.15
9935;BME280;5006;41.828;23.478;2023-02-12T04:54:42;90776.41;;;5.77;42.86
9935;BME280;5006;41.828;23.478;2023-02-12T04:55:48;90778.09;;;4.92;43.98
9935;BME280;5006;41.828;23.478;2023-02-12T04:56:54;90770.16;;;5.85;44.45
9935;BME280;5006;41.828;23.478;2023-02-12T04:57:59;90790.00;;;5.41;42.70
9935;BME280;5006;41.828;23.478;2023-02-12T04:59:04;90773.06;;;5.95;42.43
9935;BME280;5006;41.828;23.478;2023-02-12T05:00:12;90776.34;;;5.89;44.14
9935;BME280;5006;41.828;23.478;2023-02-12T05:01:17;90784.31;;;5.58;42.43
9935;BME280;5006;41.828;23.478;2023-02-12T05:02:23;90792.50;;;6.49;41.16
9935;BME280;5006;41.828;23.478;2023-02-12T05:03:28;90791.44;;;6.91;40.69
9935;BME280;5006;41.828;23.478;2023-02-12T05:04:33;90795.66;;;5.39;42.32
9935;BME280;5006;41.828;23.478;2023-02-12T05:05:38;90798.69;;;6.37;41.32
9935;BME280;5006;41.828;23.478;2023-02-12T05:06:45;90801.41;;;5.26;42.35
9935;BME280;5006;41.828;23.478;2023-02-12T05:07:50;90801.22;;;6.31;41.86
9935;BME280;5006;41.828;23.478;2023-02-12T05:08:56;90793.59;;;5.64;42.57
9935;BME280;5006;41.828;23.478;2023-02-12T05:10:02;90790.09;;;5.44;43.01
9935;BME280;5006;41.828;23.478;2023-02-12T05:11:08;90792.84;;;5.79;43.29
9935;BME280;5006;41.828;23.478;2023-02-12T05:12:14;90780.84;;;6.38;42.23
9935;BME280;5006;41.828;23.478;2023-02-12T05:13:18;90785.31;;;6.00;42.95
9935;BME280;5006;41.828;23.478;2023-02-12T05:14:24;90789.22;;;5.56;43.93
9935;BME280;5006;41.828;23.478;2023-02-12T05:15:30;90801.44;;;6.22;43.23
9935;BME280;5006;41.828;23.478;2023-02-12T05:16:34;90803.00;;;6.08;43.95
9935;BME280;5006;41.828;23.478;2023-02-12T05:17:40;90785.69;;;5.83;44.34
9935;BME280;5006;41.828;23.478;2023-02-12T05:18:45;90810.50;;;6.55;43.29
9935;BME280;5006;41.828;23.478;2023-02-12T05:19:51;90800.56;;;6.52;43.63
9935;BME280;5006;41.828;23.478;2023-02-12T05:20:56;90796.47;;;7.15;43.53
9935;BME280;5006;41.828;23.478;2023-02-12T05:22:03;90817.25;;;6.15;44.13
9935;BME280;5006;41.828;23.478;2023-02-12T05:23:07;90811.00;;;5.77;45.23
9935;BME280;5006;41.828;23.478;2023-02-12T05:24:14;90800.22;;;7.33;43.20
9935;BME280;5006;41.828;23.478;2023-02-12T05:25:18;90807.56;;;6.98;42.99
9935;BME280;5006;41.828;23.478;2023-02-12T05:26:24;90803.78;;;6.61;44.69
9935;BME280;5006;41.828;23.478;2023-02-12T05:27:29;90801.38;;;6.75;44.45
9935;BME280;5006;41.828;23.478;2023-02-12T05:28:34;90791.00;;;7.08;44.61
9935;BME280;5006;41.828;23.478;2023-02-12T05:29:39;90791.69;;;7.47;42.99
9935;BME280;5006;41.828;23.478;2023-02-12T05:30:46;90802.72;;;7.68;44.69
9935;BME280;5006;41.828;23.478;2023-02-12T05:31:50;90789.59;;;7.82;44.35
9935;BME280;5006;41.828;23.478;2023-02-12T05:32:56;90793.13;;;7.86;43.25
9935;BME280;5006;41.828;23.478;2023-02-12T05:34:00;90789.31;;;7.64;42.82
9935;BME280;5006;41.828;23.478;2023-02-12T05:35:06;90789.53;;;7.78;43.17
9935;BME280;5006;41.828;23.478;2023-02-12T05:36:13;90796.34;;;6.89;42.40
9935;BME280;5006;41.828;23.478;2023-02-12T05:37:21;90779.47;;;6.63;42.96
9935;BME280;5006;41.828;23.478;2023-02-12T05:38:25;90780.03;;;6.72;44.35
9935;BME280;5006;41.828;23.478;2023-02-12T05:39:31;90790.59;;;6.87;43.29
9935;BME280;5006;41.828;23.478;2023-02-12T05:40:35;90783.44;;;6.91;42.72
9935;BME280;5006;41.828;23.478;2023-02-12T05:41:41;90781.19;;;6.93;43.69
9935;BME280;5006;41.828;23.478;2023-02-12T05:42:46;90780.06;;;7.36;43.07
9935;BME280;5006;41.828;23.478;2023-02-12T05:43:52;90777.00;;;7.56;42.31
9935;BME280;5006;41.828;23.478;2023-02-12T05:44:57;90780.28;;;7.72;40.98
9935;BME280;5006;41.828;23.478;2023-02-12T05:46:04;90776.44;;;7.02;42.50
9935;BME280;5006;41.828;23.478;2023-02-12T05:47:09;90782.38;;;7.37;43.63
9935;BME280;5006;41.828;23.478;2023-02-12T05:48:15;90788.28;;;7.27;43.51
9935;BME280;5006;41.828;23.478;2023-02-12T05:49:20;90786.13;;;6.91;45.22
9935;BME280;5006;41.828;23.478;2023-02-12T05:50:26;90789.78;;;6.64;46.08
9935;BME280;5006;41.828;23.478;2023-02-12T05:51:37;90791.88;;;6.93;46.01
9935;BME280;5006;41.828;23.478;2023-02-12T05:52:45;90797.75;;;6.83;45.69
9935;BME280;5006;41.828;23.478;2023-02-12T05:53:51;90787.38;;;6.78;46.15
9935;BME280;5006;41.828;23.478;2023-02-12T05:54:57;90785.94;;;7.45;45.25
9935;BME280;5006;41.828;23.478;2023-02-12T05:56:08;90777.28;;;7.51;44.66
9935;BME280;5006;41.828;23.478;2023-02-12T05:57:14;90779.63;;;7.34;44.64
9935;BME280;5006;41.828;23.478;2023-02-12T05:58:18;90782.25;;;7.53;44.81
9935;BME280;5006;41.828;23.478;2023-02-12T05:59:24;90790.19;;;7.94;44.48
9935;BME280;5006;41.828;23.478;2023-02-12T06:00:29;90781.56;;;7.14;46.46
9935;BME280;5006;41.828;23.478;2023-02-12T06:01:36;90784.47;;;7.47;46.37
9935;BME280;5006;41.828;23.478;2023-02-12T06:02:41;90783.16;;;7.38;47.00
9935;BME280;5006;41.828;23.478;2023-02-12T06:03:47;90805.94;;;7.13;46.85
9935;BME280;5006;41.828;23.478;2023-02-12T06:04:52;90796.41;;;8.02;46.14
9935;BME280;5006;41.828;23.478;2023-02-12T06:05:58;90796.25;;;7.24;46.91
9935;BME280;5006;41.828;23.478;2023-02-12T06:07:02;90827.09;;;7.02;46.99
9935;BME280;5006;41.828;23.478;2023-02-12T06:08:10;90802.53;;;8.28;44.90
9935;BME280;5006;41.828;23.478;2023-02-12T06:09:15;90810.53;;;7.80;44.79
9935;BME280;5006;41.828;23.478;2023-02-12T06:10:21;90829.25;;;7.38;46.05
9935;BME280;5006;41.828;23.478;2023-02-12T06:11:26;90813.16;;;7.31;45.35
9935;BME280;5006;41.828;23.478;2023-02-12T06:12:32;90812.78;;;8.00;44.58
9935;BME280;5006;41.828;23.478;2023-02-12T06:13:36;90812.72;;;7.97;44.89
9935;BME280;5006;41.828;23.478;2023-02-12T06:14:42;90826.31;;;7.88;44.60